Pagrindinis puslapis
METAR-TAF:

METAR-TAF

Oro uostai :

Nueva Locha, Ekvadoras

platuma: 00-05-33N, ilguma: 076-52-10W, Aukštis: 299 m

Dabartinis oras

Ataskaita buvo paskelbta 1 valandą ir 9 minutes, ne 21:00 UTC
Vėjas 2 kt iš Šiaurės
Temperatūra 26°C
Drėgmė 84%
Slėgis 1010 hPa
Matomumas 10 km arba daugiau
Išsisklaidę debesys ne aukštis 2000 ft
Išsisklaidę debesys ne aukštis 10000 ft

METAR: SENL 192100Z 01002KT 9999 SCT020 SCT100 26/23 Q1010 RMK A2985

Laikas: 17:09 (22:09 UTC)


TAF: trūkstamas

Orai ataskaitas ir orų prognozės (METAR, TAF).

turimą stotys yra geltonos ir raudonos taškus žemėlapyje.

Perkelti pele per norėdami pamatyti stoties vardą.

Tada spustelėkite, norėdami matyti oro stebėjimo ir prognozės.

Norėdami pakeisti žemėlapį: spustelėkite ant žalios mygtukų su juodo kryžiaus žemyn,; žalią mygtuką su brūkšneliu, jei norite nutolinti; arba žalių rodyklių gretimoms žemėlapius.


METAR-TAF: